sensor_id;sensor_type;location;lat;lon;timestamp;P1;durP1;ratioP1;P2;durP2;ratioP2
48805;SDS011;34625;47.176;27.548;2023-12-28T00:00:00;18.00;;;9.88;;
48805;SDS011;34625;47.176;27.548;2023-12-28T00:02:29;19.17;;;9.20;;
48805;SDS011;34625;47.176;27.548;2023-12-28T00:04:55;25.88;;;9.70;;
48805;SDS011;34625;47.176;27.548;2023-12-28T00:07:21;14.00;;;6.53;;
48805;SDS011;34625;47.176;27.548;2023-12-28T00:09:47;12.27;;;7.63;;
48805;SDS011;34625;47.176;27.548;2023-12-28T00:12:14;14.48;;;7.38;;
48805;SDS011;34625;47.176;27.548;2023-12-28T00:14:40;9.00;;;5.22;;
48805;SDS011;34625;47.176;27.548;2023-12-28T00:17:06;7.70;;;4.85;;
48805;SDS011;34625;47.176;27.548;2023-12-28T00:19:32;11.48;;;5.82;;
48805;SDS011;34625;47.176;27.548;2023-12-28T00:21:58;11.05;;;4.72;;
48805;SDS011;34625;47.176;27.548;2023-12-28T00:24:24;9.18;;;4.68;;
48805;SDS011;34625;47.176;27.548;2023-12-28T00:26:50;7.97;;;4.97;;
48805;SDS011;34625;47.176;27.548;2023-12-28T00:29:16;8.40;;;4.95;;
48805;SDS011;34625;47.176;27.548;2023-12-28T00:31:42;9.05;;;5.75;;
48805;SDS011;34625;47.176;27.548;2023-12-28T00:34:09;9.13;;;5.60;;
48805;SDS011;34625;47.176;27.548;2023-12-28T00:36:35;9.45;;;6.00;;
48805;SDS011;34625;47.176;27.548;2023-12-28T00:39:01;12.98;;;6.18;;
48805;SDS011;34625;47.176;27.548;2023-12-28T00:41:27;6.78;;;5.00;;
48805;SDS011;34625;47.176;27.548;2023-12-28T00:43:53;10.35;;;6.18;;
48805;SDS011;34625;47.176;27.548;2023-12-28T00:46:20;7.90;;;5.05;;
48805;SDS011;34625;47.176;27.548;2023-12-28T00:48:46;9.30;;;5.47;;
48805;SDS011;34625;47.176;27.548;2023-12-28T00:51:13;8.27;;;5.68;;
48805;SDS011;34625;47.176;27.548;2023-12-28T00:53:39;8.52;;;5.88;;
48805;SDS011;34625;47.176;27.548;2023-12-28T00:56:05;11.20;;;6.03;;
48805;SDS011;34625;47.176;27.548;2023-12-28T00:58:32;9.25;;;6.60;;
48805;SDS011;34625;47.176;27.548;2023-12-28T01:00:58;11.70;;;7.05;;
48805;SDS011;34625;47.176;27.548;2023-12-28T01:03:24;11.82;;;7.45;;
48805;SDS011;34625;47.176;27.548;2023-12-28T01:05:52;9.55;;;6.18;;
48805;SDS011;34625;47.176;27.548;2023-12-28T01:08:18;10.93;;;6.18;;
48805;SDS011;34625;47.176;27.548;2023-12-28T01:10:45;8.77;;;4.90;;
48805;SDS011;34625;47.176;27.548;2023-12-28T01:13:11;9.07;;;5.68;;
48805;SDS011;34625;47.176;27.548;2023-12-28T01:15:37;9.48;;;5.93;;
48805;SDS011;34625;47.176;27.548;2023-12-28T01:18:03;8.77;;;4.30;;
48805;SDS011;34625;47.176;27.548;2023-12-28T01:20:30;5.75;;;3.97;;
48805;SDS011;34625;47.176;27.548;2023-12-28T01:22:56;6.55;;;4.57;;
48805;SDS011;34625;47.176;27.548;2023-12-28T01:25:22;6.40;;;4.15;;
48805;SDS011;34625;47.176;27.548;2023-12-28T01:27:48;9.02;;;5.32;;
48805;SDS011;34625;47.176;27.548;2023-12-28T01:30:14;5.18;;;4.03;;
48805;SDS011;34625;47.176;27.548;2023-12-28T01:32:41;8.02;;;4.97;;
48805;SDS011;34625;47.176;27.548;2023-12-28T01:35:07;9.48;;;4.10;;
48805;SDS011;34625;47.176;27.548;2023-12-28T01:37:33;9.23;;;4.47;;
48805;SDS011;34625;47.176;27.548;2023-12-28T01:40:00;8.38;;;4.50;;
48805;SDS011;34625;47.176;27.548;2023-12-28T01:42:26;7.50;;;4.07;;
48805;SDS011;34625;47.176;27.548;2023-12-28T01:44:55;7.88;;;4.22;;
48805;SDS011;34625;47.176;27.548;2023-12-28T01:47:23;6.65;;;3.78;;
48805;SDS011;34625;47.176;27.548;2023-12-28T01:49:53;8.57;;;3.85;;
48805;SDS011;34625;47.176;27.548;2023-12-28T01:52:19;6.68;;;4.35;;
48805;SDS011;34625;47.176;27.548;2023-12-28T01:54:46;5.30;;;3.75;;
48805;SDS011;34625;47.176;27.548;2023-12-28T01:57:13;4.95;;;3.80;;
48805;SDS011;34625;47.176;27.548;2023-12-28T01:59:40;6.65;;;3.40;;
48805;SDS011;34625;47.176;27.548;2023-12-28T02:02:06;5.60;;;3.50;;
48805;SDS011;34625;47.176;27.548;2023-12-28T02:04:33;4.50;;;3.53;;
48805;SDS011;34625;47.176;27.548;2023-12-28T02:06:59;5.72;;;3.40;;
48805;SDS011;34625;47.176;27.548;2023-12-28T02:09:26;6.03;;;3.58;;
48805;SDS011;34625;47.176;27.548;2023-12-28T02:11:52;4.35;;;3.38;;
48805;SDS011;34625;47.176;27.548;2023-12-28T02:14:19;3.83;;;2.65;;
48805;SDS011;34625;47.176;27.548;2023-12-28T02:16:59;4.03;;;2.95;;
48805;SDS011;34625;47.176;27.548;2023-12-28T02:22:14;3.80;;;3.08;;
48805;SDS011;34625;47.176;27.548;2023-12-28T02:25:14;3.65;;;2.92;;
48805;SDS011;34625;47.176;27.548;2023-12-28T02:30:17;5.57;;;3.67;;
48805;SDS011;34625;47.176;27.548;2023-12-28T02:37:51;11.52;;;5.55;;
48805;SDS011;34625;47.176;27.548;2023-12-28T02:40:21;10.00;;;5.35;;
48805;SDS011;34625;47.176;27.548;2023-12-28T02:42:49;8.75;;;5.18;;
48805;SDS011;34625;47.176;27.548;2023-12-28T02:45:16;10.05;;;5.15;;
48805;SDS011;34625;47.176;27.548;2023-12-28T02:47:44;8.52;;;5.43;;
48805;SDS011;34625;47.176;27.548;2023-12-28T02:50:10;15.68;;;6.88;;
48805;SDS011;34625;47.176;27.548;2023-12-28T02:52:36;11.13;;;7.13;;
48805;SDS011;34625;47.176;27.548;2023-12-28T02:55:02;12.40;;;6.47;;
48805;SDS011;34625;47.176;27.548;2023-12-28T02:57:29;11.82;;;6.55;;
48805;SDS011;34625;47.176;27.548;2023-12-28T02:59:55;13.35;;;7.30;;
48805;SDS011;34625;47.176;27.548;2023-12-28T03:02:22;13.82;;;7.80;;
48805;SDS011;34625;47.176;27.548;2023-12-28T03:04:49;13.57;;;7.38;;
48805;SDS011;34625;47.176;27.548;2023-12-28T03:07:15;12.18;;;7.82;;
48805;SDS011;34625;47.176;27.548;2023-12-28T03:09:41;14.82;;;6.93;;
48805;SDS011;34625;47.176;27.548;2023-12-28T03:12:07;10.23;;;5.88;;
48805;SDS011;34625;47.176;27.548;2023-12-28T03:14:33;8.80;;;6.85;;
48805;SDS011;34625;47.176;27.548;2023-12-28T03:16:59;11.05;;;6.10;;
48805;SDS011;34625;47.176;27.548;2023-12-28T03:19:25;7.82;;;5.20;;
48805;SDS011;34625;47.176;27.548;2023-12-28T03:21:51;7.63;;;5.68;;
48805;SDS011;34625;47.176;27.548;2023-12-28T03:24:17;8.35;;;5.93;;
48805;SDS011;34625;47.176;27.548;2023-12-28T03:26:43;8.50;;;5.47;;
48805;SDS011;34625;47.176;27.548;2023-12-28T03:29:10;9.32;;;4.97;;
48805;SDS011;34625;47.176;27.548;2023-12-28T03:31:39;10.70;;;6.07;;
48805;SDS011;34625;47.176;27.548;2023-12-28T03:34:06;10.68;;;6.45;;
48805;SDS011;34625;47.176;27.548;2023-12-28T03:36:32;11.80;;;6.97;;
48805;SDS011;34625;47.176;27.548;2023-12-28T03:38:58;11.73;;;7.13;;
48805;SDS011;34625;47.176;27.548;2023-12-28T03:41:24;11.13;;;7.47;;
48805;SDS011;34625;47.176;27.548;2023-12-28T03:43:50;14.15;;;7.28;;
48805;SDS011;34625;47.176;27.548;2023-12-28T03:46:16;12.88;;;7.32;;
48805;SDS011;34625;47.176;27.548;2023-12-28T03:48:42;19.50;;;10.02;;
48805;SDS011;34625;47.176;27.548;2023-12-28T03:51:13;37.72;;;15.05;;
48805;SDS011;34625;47.176;27.548;2023-12-28T03:53:40;33.72;;;16.35;;
48805;SDS011;34625;47.176;27.548;2023-12-28T03:59:09;11.27;;;5.03;;
48805;SDS011;34625;47.176;27.548;2023-12-28T04:01:35;13.45;;;6.15;;
48805;SDS011;34625;47.176;27.548;2023-12-28T04:04:01;9.70;;;4.85;;
48805;SDS011;34625;47.176;27.548;2023-12-28T04:06:29;8.40;;;3.75;;
48805;SDS011;34625;47.176;27.548;2023-12-28T04:08:56;6.50;;;3.92;;
48805;SDS011;34625;47.176;27.548;2023-12-28T04:11:22;7.32;;;3.72;;
48805;SDS011;34625;47.176;27.548;2023-12-28T04:13:49;7.25;;;3.55;;
48805;SDS011;34625;47.176;27.548;2023-12-28T04:16:16;5.70;;;3.45;;
48805;SDS011;34625;47.176;27.548;2023-12-28T04:18:42;3.75;;;2.95;;
48805;SDS011;34625;47.176;27.548;2023-12-28T04:21:12;3.38;;;3.05;;
48805;SDS011;34625;47.176;27.548;2023-12-28T04:23:40;6.13;;;3.58;;
48805;SDS011;34625;47.176;27.548;2023-12-28T04:26:07;6.45;;;3.03;;
48805;SDS011;34625;47.176;27.548;2023-12-28T04:28:34;7.63;;;2.83;;
48805;SDS011;34625;47.176;27.548;2023-12-28T04:31:02;3.78;;;2.78;;
48805;SDS011;34625;47.176;27.548;2023-12-28T04:33:32;6.82;;;3.55;;
48805;SDS011;34625;47.176;27.548;2023-12-28T04:36:02;6.63;;;3.28;;
48805;SDS011;34625;47.176;27.548;2023-12-28T04:38:29;6.00;;;3.63;;
48805;SDS011;34625;47.176;27.548;2023-12-28T04:40:57;5.72;;;3.22;;
48805;SDS011;34625;47.176;27.548;2023-12-28T04:43:24;7.03;;;3.15;;
48805;SDS011;34625;47.176;27.548;2023-12-28T04:45:50;4.22;;;2.70;;
48805;SDS011;34625;47.176;27.548;2023-12-28T04:48:17;3.92;;;2.85;;
48805;SDS011;34625;47.176;27.548;2023-12-28T04:50:49;5.57;;;2.88;;
48805;SDS011;34625;47.176;27.548;2023-12-28T04:53:15;5.22;;;3.67;;
48805;SDS011;34625;47.176;27.548;2023-12-28T04:55:42;6.07;;;3.40;;
48805;SDS011;34625;47.176;27.548;2023-12-28T04:58:10;5.25;;;3.20;;
48805;SDS011;34625;47.176;27.548;2023-12-28T05:00:38;3.63;;;2.70;;
48805;SDS011;34625;47.176;27.548;2023-12-28T05:03:04;5.55;;;3.30;;
48805;SDS011;34625;47.176;27.548;2023-12-28T05:05:30;6.00;;;2.97;;
48805;SDS011;34625;47.176;27.548;2023-12-28T05:07:56;4.45;;;2.55;;
48805;SDS011;34625;47.176;27.548;2023-12-28T05:10:22;6.50;;;3.78;;
48805;SDS011;34625;47.176;27.548;2023-12-28T05:12:49;4.30;;;3.25;;
48805;SDS011;34625;47.176;27.548;2023-12-28T05:15:15;7.47;;;3.00;;
48805;SDS011;34625;47.176;27.548;2023-12-28T05:17:42;3.65;;;2.58;;
48805;SDS011;34625;47.176;27.548;2023-12-28T05:20:09;5.82;;;3.13;;
48805;SDS011;34625;47.176;27.548;2023-12-28T05:22:35;4.72;;;3.08;;
48805;SDS011;34625;47.176;27.548;2023-12-28T05:25:01;5.72;;;2.58;;
48805;SDS011;34625;47.176;27.548;2023-12-28T05:27:27;4.30;;;2.50;;
48805;SDS011;34625;47.176;27.548;2023-12-28T05:29:53;4.72;;;2.90;;
48805;SDS011;34625;47.176;27.548;2023-12-28T05:32:19;7.95;;;3.40;;
48805;SDS011;34625;47.176;27.548;2023-12-28T05:34:45;3.55;;;2.65;;
48805;SDS011;34625;47.176;27.548;2023-12-28T05:37:13;6.28;;;3.05;;
48805;SDS011;34625;47.176;27.548;2023-12-28T05:39:39;5.80;;;3.33;;
48805;SDS011;34625;47.176;27.548;2023-12-28T05:42:05;5.45;;;3.20;;
48805;SDS011;34625;47.176;27.548;2023-12-28T05:44:31;5.22;;;3.10;;
48805;SDS011;34625;47.176;27.548;2023-12-28T05:46:57;3.58;;;3.08;;
48805;SDS011;34625;47.176;27.548;2023-12-28T05:49:23;6.40;;;3.42;;
48805;SDS011;34625;47.176;27.548;2023-12-28T05:51:50;3.88;;;2.78;;
48805;SDS011;34625;47.176;27.548;2023-12-28T05:54:16;3.67;;;3.08;;
48805;SDS011;34625;47.176;27.548;2023-12-28T05:56:42;5.10;;;2.58;;
48805;SDS011;34625;47.176;27.548;2023-12-28T05:59:08;3.03;;;2.30;;
48805;SDS011;34625;47.176;27.548;2023-12-28T06:01:41;4.88;;;2.83;;
48805;SDS011;34625;47.176;27.548;2023-12-28T06:04:10;3.80;;;2.35;;
48805;SDS011;34625;47.176;27.548;2023-12-28T06:06:36;5.85;;;2.22;;
48805;SDS011;34625;47.176;27.548;2023-12-28T06:09:03;3.55;;;2.40;;
48805;SDS011;34625;47.176;27.548;2023-12-28T06:11:29;6.63;;;3.90;;
48805;SDS011;34625;47.176;27.548;2023-12-28T06:13:55;3.83;;;3.53;;
48805;SDS011;34625;47.176;27.548;2023-12-28T06:16:21;6.25;;;4.68;;
48805;SDS011;34625;47.176;27.548;2023-12-28T06:18:48;5.75;;;5.20;;
48805;SDS011;34625;47.176;27.548;2023-12-28T06:21:14;5.00;;;3.95;;
48805;SDS011;34625;47.176;27.548;2023-12-28T06:23:40;3.45;;;2.92;;
48805;SDS011;34625;47.176;27.548;2023-12-28T06:26:06;4.30;;;2.55;;
48805;SDS011;34625;47.176;27.548;2023-12-28T06:28:32;3.10;;;2.25;;
48805;SDS011;34625;47.176;27.548;2023-12-28T06:30:59;5.70;;;2.50;;
48805;SDS011;34625;47.176;27.548;2023-12-28T06:33:29;3.53;;;2.92;;
48805;SDS011;34625;47.176;27.548;2023-12-28T06:35:55;3.60;;;2.72;;
48805;SDS011;34625;47.176;27.548;2023-12-28T06:38:23;3.88;;;3.10;;
48805;SDS011;34625;47.176;27.548;2023-12-28T06:40:50;4.88;;;3.30;;
48805;SDS011;34625;47.176;27.548;2023-12-28T06:43:16;5.72;;;2.95;;
48805;SDS011;34625;47.176;27.548;2023-12-28T06:45:42;4.97;;;3.33;;
48805;SDS011;34625;47.176;27.548;2023-12-28T06:48:09;5.72;;;3.28;;
48805;SDS011;34625;47.176;27.548;2023-12-28T06:50:35;4.55;;;2.70;;
48805;SDS011;34625;47.176;27.548;2023-12-28T06:53:01;5.28;;;3.53;;
48805;SDS011;34625;47.176;27.548;2023-12-28T06:55:27;7.78;;;3.92;;
48805;SDS011;34625;47.176;27.548;2023-12-28T06:57:53;8.35;;;6.07;;
48805;SDS011;34625;47.176;27.548;2023-12-28T07:00:19;5.28;;;4.10;;
48805;SDS011;34625;47.176;27.548;2023-12-28T07:02:45;6.65;;;3.65;;
48805;SDS011;34625;47.176;27.548;2023-12-28T07:05:11;5.28;;;3.35;;
48805;SDS011;34625;47.176;27.548;2023-12-28T07:07:39;5.85;;;4.10;;
48805;SDS011;34625;47.176;27.548;2023-12-28T07:10:05;9.48;;;4.82;;
48805;SDS011;34625;47.176;27.548;2023-12-28T07:12:32;7.25;;;4.30;;
48805;SDS011;34625;47.176;27.548;2023-12-28T07:14:58;6.13;;;1.92;;
48805;SDS011;34625;47.176;27.548;2023-12-28T07:17:24;9.00;;;2.60;;
48805;SDS011;34625;47.176;27.548;2023-12-28T07:19:50;5.55;;;2.15;;
48805;SDS011;34625;47.176;27.548;2023-12-28T07:22:16;3.17;;;1.67;;
48805;SDS011;34625;47.176;27.548;2023-12-28T07:24:42;9.15;;;5.55;;
48805;SDS011;34625;47.176;27.548;2023-12-28T07:27:09;10.95;;;5.70;;
48805;SDS011;34625;47.176;27.548;2023-12-28T07:29:35;3.00;;;2.08;;
48805;SDS011;34625;47.176;27.548;2023-12-28T07:32:01;12.13;;;5.63;;
48805;SDS011;34625;47.176;27.548;2023-12-28T07:34:27;5.72;;;2.50;;
48805;SDS011;34625;47.176;27.548;2023-12-28T07:36:53;4.25;;;1.88;;
48805;SDS011;34625;47.176;27.548;2023-12-28T07:39:19;7.88;;;4.13;;
48805;SDS011;34625;47.176;27.548;2023-12-28T07:41:45;4.00;;;2.47;;
48805;SDS011;34625;47.176;27.548;2023-12-28T07:44:12;4.93;;;2.85;;
48805;SDS011;34625;47.176;27.548;2023-12-28T07:46:38;6.72;;;2.88;;
48805;SDS011;34625;47.176;27.548;2023-12-28T07:49:04;7.88;;;3.30;;
48805;SDS011;34625;47.176;27.548;2023-12-28T07:51:30;7.28;;;3.63;;
48805;SDS011;34625;47.176;27.548;2023-12-28T07:53:56;5.50;;;3.60;;
48805;SDS011;34625;47.176;27.548;2023-12-28T07:56:22;5.95;;;3.30;;
48805;SDS011;34625;47.176;27.548;2023-12-28T07:58:48;11.23;;;5.65;;
48805;SDS011;34625;47.176;27.548;2023-12-28T08:01:14;11.40;;;5.85;;
48805;SDS011;34625;47.176;27.548;2023-12-28T08:03:40;10.23;;;5.43;;
48805;SDS011;34625;47.176;27.548;2023-12-28T08:06:06;7.60;;;5.30;;
48805;SDS011;34625;47.176;27.548;2023-12-28T08:08:32;9.98;;;5.32;;
48805;SDS011;34625;47.176;27.548;2023-12-28T08:10:58;8.70;;;5.68;;
48805;SDS011;34625;47.176;27.548;2023-12-28T08:13:24;9.85;;;5.60;;
48805;SDS011;34625;47.176;27.548;2023-12-28T08:15:51;15.85;;;5.80;;
48805;SDS011;34625;47.176;27.548;2023-12-28T08:18:17;8.10;;;5.50;;
48805;SDS011;34625;47.176;27.548;2023-12-28T08:20:43;11.63;;;4.75;;
48805;SDS011;34625;47.176;27.548;2023-12-28T08:23:09;10.88;;;6.15;;
48805;SDS011;34625;47.176;27.548;2023-12-28T08:25:35;10.23;;;6.05;;
48805;SDS011;34625;47.176;27.548;2023-12-28T08:28:01;9.52;;;5.80;;
48805;SDS011;34625;47.176;27.548;2023-12-28T08:30:28;8.85;;;5.35;;
48805;SDS011;34625;47.176;27.548;2023-12-28T08:32:54;8.90;;;5.60;;
48805;SDS011;34625;47.176;27.548;2023-12-28T08:35:20;9.77;;;6.30;;
48805;SDS011;34625;47.176;27.548;2023-12-28T08:37:46;16.08;;;6.95;;
48805;SDS011;34625;47.176;27.548;2023-12-28T08:40:12;16.38;;;7.13;;
48805;SDS011;34625;47.176;27.548;2023-12-28T08:42:39;18.42;;;6.93;;
48805;SDS011;34625;47.176;27.548;2023-12-28T08:45:05;7.65;;;5.30;;
48805;SDS011;34625;47.176;27.548;2023-12-28T08:47:31;10.82;;;6.40;;
48805;SDS011;34625;47.176;27.548;2023-12-28T08:49:57;11.45;;;5.70;;
48805;SDS011;34625;47.176;27.548;2023-12-28T08:52:23;12.55;;;5.65;;
48805;SDS011;34625;47.176;27.548;2023-12-28T08:54:49;9.73;;;5.88;;
48805;SDS011;34625;47.176;27.548;2023-12-28T08:57:15;10.00;;;5.25;;
48805;SDS011;34625;47.176;27.548;2023-12-28T08:59:41;7.80;;;4.68;;
48805;SDS011;34625;47.176;27.548;2023-12-28T09:02:07;8.82;;;5.10;;
48805;SDS011;34625;47.176;27.548;2023-12-28T09:04:34;14.10;;;6.68;;
48805;SDS011;34625;47.176;27.548;2023-12-28T09:07:00;6.30;;;5.32;;
48805;SDS011;34625;47.176;27.548;2023-12-28T09:09:26;16.70;;;6.22;;
48805;SDS011;34625;47.176;27.548;2023-12-28T09:11:52;11.60;;;6.22;;
48805;SDS011;34625;47.176;27.548;2023-12-28T09:14:18;9.25;;;5.95;;
48805;SDS011;34625;47.176;27.548;2023-12-28T09:16:45;10.77;;;5.70;;
48805;SDS011;34625;47.176;27.548;2023-12-28T09:19:12;12.98;;;6.15;;
48805;SDS011;34625;47.176;27.548;2023-12-28T09:21:38;9.48;;;5.30;;
48805;SDS011;34625;47.176;27.548;2023-12-28T09:24:04;11.55;;;5.88;;
48805;SDS011;34625;47.176;27.548;2023-12-28T09:26:30;11.68;;;5.28;;
48805;SDS011;34625;47.176;27.548;2023-12-28T09:28:58;7.75;;;5.35;;
48805;SDS011;34625;47.176;27.548;2023-12-28T09:31:24;9.77;;;4.65;;
48805;SDS011;34625;47.176;27.548;2023-12-28T09:33:50;10.23;;;5.47;;
48805;SDS011;34625;47.176;27.548;2023-12-28T09:36:17;9.13;;;5.45;;
48805;SDS011;34625;47.176;27.548;2023-12-28T09:38:43;10.27;;;5.07;;
48805;SDS011;34625;47.176;27.548;2023-12-28T09:41:11;10.35;;;6.15;;
48805;SDS011;34625;47.176;27.548;2023-12-28T09:46:16;7.55;;;3.55;;
48805;SDS011;34625;47.176;27.548;2023-12-28T09:48:42;5.65;;;3.67;;
48805;SDS011;34625;47.176;27.548;2023-12-28T09:51:10;6.20;;;4.22;;
48805;SDS011;34625;47.176;27.548;2023-12-28T09:53:36;8.70;;;4.63;;
48805;SDS011;34625;47.176;27.548;2023-12-28T09:56:02;12.20;;;5.65;;
48805;SDS011;34625;47.176;27.548;2023-12-28T09:58:29;11.40;;;6.93;;
48805;SDS011;34625;47.176;27.548;2023-12-28T10:00:57;12.57;;;5.82;;
48805;SDS011;34625;47.176;27.548;2023-12-28T10:03:26;9.35;;;5.55;;
48805;SDS011;34625;47.176;27.548;2023-12-28T10:05:52;11.68;;;5.40;;
48805;SDS011;34625;47.176;27.548;2023-12-28T10:08:18;9.43;;;5.93;;
48805;SDS011;34625;47.176;27.548;2023-12-28T10:10:44;12.85;;;5.88;;
48805;SDS011;34625;47.176;27.548;2023-12-28T10:13:17;12.02;;;6.28;;
48805;SDS011;34625;47.176;27.548;2023-12-28T10:15:43;9.30;;;5.32;;
48805;SDS011;34625;47.176;27.548;2023-12-28T10:18:10;9.32;;;5.63;;
48805;SDS011;34625;47.176;27.548;2023-12-28T10:20:36;8.90;;;5.57;;
48805;SDS011;34625;47.176;27.548;2023-12-28T10:23:02;12.57;;;5.97;;
48805;SDS011;34625;47.176;27.548;2023-12-28T10:25:30;13.88;;;5.97;;
48805;SDS011;34625;47.176;27.548;2023-12-28T10:27:58;6.47;;;4.60;;
48805;SDS011;34625;47.176;27.548;2023-12-28T10:30:30;10.02;;;5.57;;
48805;SDS011;34625;47.176;27.548;2023-12-28T10:32:56;10.77;;;6.05;;
48805;SDS011;34625;47.176;27.548;2023-12-28T10:35:23;7.35;;;5.22;;
48805;SDS011;34625;47.176;27.548;2023-12-28T10:37:50;12.85;;;6.00;;
48805;SDS011;34625;47.176;27.548;2023-12-28T10:40:21;9.48;;;5.53;;
48805;SDS011;34625;47.176;27.548;2023-12-28T10:45:28;8.88;;;5.03;;
48805;SDS011;34625;47.176;27.548;2023-12-28T10:48:00;11.10;;;5.88;;
48805;SDS011;34625;47.176;27.548;2023-12-28T10:50:30;12.55;;;5.57;;
48805;SDS011;34625;47.176;27.548;2023-12-28T10:56:21;12.85;;;5.65;;
48805;SDS011;34625;47.176;27.548;2023-12-28T10:59:14;11.48;;;6.28;;
48805;SDS011;34625;47.176;27.548;2023-12-28T11:02:01;26.27;;;13.65;;
48805;SDS011;34625;47.176;27.548;2023-12-28T11:04:34;10.07;;;6.85;;
48805;SDS011;34625;47.176;27.548;2023-12-28T11:07:09;10.80;;;5.65;;
48805;SDS011;34625;47.176;27.548;2023-12-28T11:09:38;10.13;;;5.60;;
48805;SDS011;34625;47.176;27.548;2023-12-28T11:12:07;9.95;;;6.13;;
48805;SDS011;34625;47.176;27.548;2023-12-28T11:14:40;8.48;;;5.13;;
48805;SDS011;34625;47.176;27.548;2023-12-28T11:17:09;7.05;;;5.20;;
48805;SDS011;34625;47.176;27.548;2023-12-28T11:19:36;11.73;;;5.80;;
48805;SDS011;34625;47.176;27.548;2023-12-28T11:22:03;9.48;;;6.25;;
48805;SDS011;34625;47.176;27.548;2023-12-28T11:24:30;9.85;;;6.07;;
48805;SDS011;34625;47.176;27.548;2023-12-28T11:26:57;6.28;;;3.60;;
48805;SDS011;34625;47.176;27.548;2023-12-28T11:29:24;27.75;;;5.07;;
48805;SDS011;34625;47.176;27.548;2023-12-28T11:31:57;10.77;;;6.45;;
48805;SDS011;34625;47.176;27.548;2023-12-28T11:34:25;14.32;;;6.85;;
48805;SDS011;34625;47.176;27.548;2023-12-28T11:36:52;11.15;;;6.43;;
48805;SDS011;34625;47.176;27.548;2023-12-28T11:39:30;12.35;;;6.82;;
48805;SDS011;34625;47.176;27.548;2023-12-28T11:44:28;15.15;;;7.55;;
48805;SDS011;34625;47.176;27.548;2023-12-28T11:47:16;17.63;;;7.65;;
48805;SDS011;34625;47.176;27.548;2023-12-28T11:49:46;16.02;;;8.23;;
48805;SDS011;34625;47.176;27.548;2023-12-28T11:52:27;17.42;;;7.45;;
48805;SDS011;34625;47.176;27.548;2023-12-28T11:54:55;17.58;;;8.05;;
48805;SDS011;34625;47.176;27.548;2023-12-28T11:57:23;13.88;;;7.72;;
48805;SDS011;34625;47.176;27.548;2023-12-28T11:59:53;15.95;;;8.07;;
48805;SDS011;34625;47.176;27.548;2023-12-28T12:02:23;12.93;;;7.68;;
48805;SDS011;34625;47.176;27.548;2023-12-28T12:04:50;12.85;;;7.68;;
48805;SDS011;34625;47.176;27.548;2023-12-28T12:07:16;12.35;;;7.22;;
48805;SDS011;34625;47.176;27.548;2023-12-28T12:09:43;13.27;;;7.47;;
48805;SDS011;34625;47.176;27.548;2023-12-28T12:12:09;12.85;;;7.53;;
48805;SDS011;34625;47.176;27.548;2023-12-28T12:14:36;15.85;;;7.30;;
48805;SDS011;34625;47.176;27.548;2023-12-28T12:17:03;10.77;;;6.05;;
48805;SDS011;34625;47.176;27.548;2023-12-28T12:19:29;10.82;;;5.95;;
48805;SDS011;34625;47.176;27.548;2023-12-28T12:21:56;15.80;;;7.10;;
48805;SDS011;34625;47.176;27.548;2023-12-28T12:24:22;10.15;;;6.10;;
48805;SDS011;34625;47.176;27.548;2023-12-28T12:26:52;12.23;;;6.45;;
48805;SDS011;34625;47.176;27.548;2023-12-28T12:29:18;12.68;;;7.38;;
48805;SDS011;34625;47.176;27.548;2023-12-28T12:31:46;17.35;;;7.05;;
48805;SDS011;34625;47.176;27.548;2023-12-28T12:34:16;10.77;;;6.07;;
48805;SDS011;34625;47.176;27.548;2023-12-28T12:36:43;10.18;;;6.45;;
48805;SDS011;34625;47.176;27.548;2023-12-28T12:39:10;13.05;;;6.75;;
48805;SDS011;34625;47.176;27.548;2023-12-28T12:41:36;11.60;;;6.82;;
48805;SDS011;34625;47.176;27.548;2023-12-28T12:44:03;10.75;;;6.80;;
48805;SDS011;34625;47.176;27.548;2023-12-28T12:46:30;14.38;;;7.28;;
48805;SDS011;34625;47.176;27.548;2023-12-28T12:48:57;14.15;;;7.13;;
48805;SDS011;34625;47.176;27.548;2023-12-28T12:51:24;12.20;;;6.50;;
48805;SDS011;34625;47.176;27.548;2023-12-28T12:53:55;15.45;;;6.93;;
48805;SDS011;34625;47.176;27.548;2023-12-28T12:56:26;16.10;;;7.43;;
48805;SDS011;34625;47.176;27.548;2023-12-28T12:58:53;9.98;;;6.78;;
48805;SDS011;34625;47.176;27.548;2023-12-28T13:01:22;4.97;;;3.50;;
48805;SDS011;34625;47.176;27.548;2023-12-28T13:03:49;4.18;;;3.25;;
48805;SDS011;34625;47.176;27.548;2023-12-28T13:06:16;5.43;;;3.80;;
48805;SDS011;34625;47.176;27.548;2023-12-28T13:08:43;5.82;;;4.13;;
48805;SDS011;34625;47.176;27.548;2023-12-28T13:11:09;5.68;;;3.97;;
48805;SDS011;34625;47.176;27.548;2023-12-28T13:13:36;5.90;;;4.10;;
48805;SDS011;34625;47.176;27.548;2023-12-28T13:16:20;6.22;;;3.80;;
48805;SDS011;34625;47.176;27.548;2023-12-28T13:18:46;15.30;;;8.90;;
48805;SDS011;34625;47.176;27.548;2023-12-28T13:21:12;12.57;;;7.95;;
48805;SDS011;34625;47.176;27.548;2023-12-28T13:23:39;11.65;;;7.90;;
48805;SDS011;34625;47.176;27.548;2023-12-28T13:26:06;18.15;;;7.80;;
48805;SDS011;34625;47.176;27.548;2023-12-28T13:28:33;21.42;;;10.50;;
48805;SDS011;34625;47.176;27.548;2023-12-28T13:30:59;17.85;;;8.55;;
48805;SDS011;34625;47.176;27.548;2023-12-28T13:33:25;14.93;;;7.40;;
48805;SDS011;34625;47.176;27.548;2023-12-28T13:35:51;13.57;;;7.00;;
48805;SDS011;34625;47.176;27.548;2023-12-28T13:38:18;14.15;;;6.68;;
48805;SDS011;34625;47.176;27.548;2023-12-28T13:40:44;14.48;;;6.22;;
48805;SDS011;34625;47.176;27.548;2023-12-28T13:43:10;10.38;;;5.60;;
48805;SDS011;34625;47.176;27.548;2023-12-28T13:45:36;11.23;;;6.35;;
48805;SDS011;34625;47.176;27.548;2023-12-28T13:48:02;14.32;;;6.30;;
48805;SDS011;34625;47.176;27.548;2023-12-28T13:50:28;11.88;;;6.75;;
48805;SDS011;34625;47.176;27.548;2023-12-28T13:52:56;12.05;;;7.20;;
48805;SDS011;34625;47.176;27.548;2023-12-28T13:55:22;10.50;;;6.13;;
48805;SDS011;34625;47.176;27.548;2023-12-28T13:57:48;13.07;;;7.47;;
48805;SDS011;34625;47.176;27.548;2023-12-28T14:00:15;11.05;;;7.00;;
48805;SDS011;34625;47.176;27.548;2023-12-28T14:02:41;12.10;;;7.15;;
48805;SDS011;34625;47.176;27.548;2023-12-28T14:05:08;12.52;;;6.88;;
48805;SDS011;34625;47.176;27.548;2023-12-28T14:07:34;15.32;;;7.63;;
48805;SDS011;34625;47.176;27.548;2023-12-28T14:10:00;11.73;;;7.35;;
48805;SDS011;34625;47.176;27.548;2023-12-28T14:12:26;11.07;;;6.45;;
48805;SDS011;34625;47.176;27.548;2023-12-28T14:14:52;13.90;;;6.82;;
48805;SDS011;34625;47.176;27.548;2023-12-28T14:17:18;14.43;;;8.07;;
48805;SDS011;34625;47.176;27.548;2023-12-28T14:19:46;21.35;;;6.72;;
48805;SDS011;34625;47.176;27.548;2023-12-28T14:22:12;11.38;;;7.10;;
48805;SDS011;34625;47.176;27.548;2023-12-28T14:24:39;16.63;;;8.70;;
48805;SDS011;34625;47.176;27.548;2023-12-28T14:27:05;12.10;;;7.35;;
48805;SDS011;34625;47.176;27.548;2023-12-28T14:29:32;13.70;;;8.23;;
48805;SDS011;34625;47.176;27.548;2023-12-28T14:31:58;13.90;;;8.40;;
48805;SDS011;34625;47.176;27.548;2023-12-28T14:34:24;13.70;;;8.00;;
48805;SDS011;34625;47.176;27.548;2023-12-28T14:36:52;12.82;;;8.38;;
48805;SDS011;34625;47.176;27.548;2023-12-28T14:39:18;13.70;;;8.95;;
48805;SDS011;34625;47.176;27.548;2023-12-28T14:41:45;17.40;;;8.93;;
48805;SDS011;34625;47.176;27.548;2023-12-28T14:44:11;18.92;;;8.60;;
48805;SDS011;34625;47.176;27.548;2023-12-28T14:46:38;20.05;;;10.38;;
48805;SDS011;34625;47.176;27.548;2023-12-28T14:49:04;22.10;;;10.25;;
48805;SDS011;34625;47.176;27.548;2023-12-28T14:51:30;19.70;;;10.40;;